Sanders, AZ

5:02 PM MST on July 31, 2014 (GMT -0700)
Window Rock (KRQE) Elev 6742 ft | 35.66 °N, 109.06 °W | Change Station

Current weather conditions updated 9 minutes ago

Light Rain
Light Rain
63 °F
Feels Like 63 °F
N
12
Wind Variable Wind from East

Tomorrow is forecast to be nearly the same temperature as today.

Today
High -- | Low -- °F
--% Chance of Precip.
Yesterday
High -- | Low -- °F
Precip. -- in
5:25 AM 7:21 PM
Waxing Crescent, 22% visible
Pressure 29.98 in
Visibility 3.0 miles
Clouds Few 5000 ft
Mostly Cloudy 8000 ft
Overcast 10000 ft
Dew Point 55 °F
Humidity 75%
Rainfall 0.28 in
Snow Depth Not available.
UV 1 out of 12
Pollen 5.20 out of 12
Air Quality Not available.
Flu Activity Not available.
METAR KRQE 312353Z AUTO 08010KT 3SM -RA FEW050 BKN080 OVC100 17/13 A3028 RMK AO2 WSHFT 2322 RAE02B39 PRESFR SLP151 P0003 60025 T01720128 10289 20172 56002 TSNO

More Conditions Fewer Conditions

Pressure 29.98 in
Visibility 3.0 miles
Clouds Few 5000 ft
Mostly Cloudy 8000 ft
Overcast 10000 ft
Dew Point 55 °F
Humidity 75%
Rainfall 0.28 in
Snow Depth Not available.
UV 1 out of 12
Pollen 5.20 out of 12
Air Quality Not available.
Flu Activity Not available.
METAR KRQE 312353Z AUTO 08010KT 3SM -RA FEW050 BKN080 OVC100 17/13 A3028 RMK AO2 WSHFT 2322 RAE02B39 PRESFR SLP151 P0003 60025 T01720128 10289 20172 56002 TSNO

More Conditions Fewer Conditions

10-Day Weather Forecast

Almanac

Astronomy

Jul. 31, 2014 Rise Set
Actual Time 5:25 AM MST 7:21 PM MST
Civil Twilight 4:57 AM MST 7:49 PM MST
Nautical Twilight 4:23 AM MST 8:23 PM MST
Astronomical Twilight 3:47 AM MST 8:59 PM MST
Moon 9:44 AM MST (7/31) 9:48 PM MST (7/31)
Length of Visible Light 14h 51m
Length of Day
13h 55m
Tomorrow will be 1m 38s shorter.
Waxing Crescent, 22% of the Moon is Illuminated
Today
Waxing Crescent
Aug 3
First Quarter
Aug 10
Full
Aug 17
Last Quarter
Aug 25
New

Today's Extremes

State Highs State Lows

Community

WunderPhotos

Upload Photos

1,739,471 photos uploaded!

Nearby

Snow Depth

Station Depth Elevation
Workman Creek 0 in 6900 ft
White Horse Lake 0 in 7180 ft

Earthquake Activity

City Distance Mag. Time & Date
No recent earthquake activity has been reported nearby.
Minimum magnitude displayed is 2.5.

Coastal Water Temperatures

Place Temperature
No Stations Reporting

Nearby Weather Stations

Station Location Temp. Heat Index Dew Point Humidity Wind Precip. Elev Updated Type
RAWS ZUNI BUTTES NM, Zuni, NM 78 °F 79 °F 53 °F 42% NNW  at  12 mph 0.00 in / hr 6611 ft 4:42 PM MDT MADIS

Show More Stations Show Fewer Stations